sensor_id;sensor_type;location;lat;lon;timestamp;pressure;altitude;pressure_sealevel;temperature;humidity
49827;BME280;35715;51.570;6.036;2023-08-20T00:00:58;101922.72;;;20.29;96.99
49827;BME280;35715;51.570;6.036;2023-08-20T00:03:25;101934.00;;;20.28;96.71
49827;BME280;35715;51.570;6.036;2023-08-20T00:05:51;101933.88;;;20.25;96.39
49827;BME280;35715;51.570;6.036;2023-08-20T00:08:16;101932.84;;;20.21;96.69
49827;BME280;35715;51.570;6.036;2023-08-20T00:10:42;101937.03;;;20.18;96.84
49827;BME280;35715;51.570;6.036;2023-08-20T00:13:07;101940.44;;;20.15;96.80
49827;BME280;35715;51.570;6.036;2023-08-20T00:15:33;101941.31;;;20.16;96.83
49827;BME280;35715;51.570;6.036;2023-08-20T00:17:58;101932.72;;;20.18;96.88
49827;BME280;35715;51.570;6.036;2023-08-20T00:20:24;101932.78;;;20.20;96.75
49827;BME280;35715;51.570;6.036;2023-08-20T00:22:50;101941.00;;;20.28;96.64
49827;BME280;35715;51.570;6.036;2023-08-20T00:25:17;101941.28;;;20.34;97.02
49827;BME280;35715;51.570;6.036;2023-08-20T00:27:43;101947.66;;;20.41;97.24
49827;BME280;35715;51.570;6.036;2023-08-20T00:30:09;101947.00;;;20.45;96.75
49827;BME280;35715;51.570;6.036;2023-08-20T00:32:35;101948.00;;;20.48;96.72
49827;BME280;35715;51.570;6.036;2023-08-20T00:35:01;101943.75;;;20.50;96.61
49827;BME280;35715;51.570;6.036;2023-08-20T00:37:31;101949.00;;;20.50;96.75
49827;BME280;35715;51.570;6.036;2023-08-20T00:39:56;101946.38;;;20.50;96.95
49827;BME280;35715;51.570;6.036;2023-08-20T00:42:23;101944.56;;;20.49;96.93
49827;BME280;35715;51.570;6.036;2023-08-20T00:44:50;101950.69;;;20.50;96.94
49827;BME280;35715;51.570;6.036;2023-08-20T00:47:16;101946.38;;;20.50;96.68
49827;BME280;35715;51.570;6.036;2023-08-20T00:49:43;101955.00;;;20.48;96.50
49827;BME280;35715;51.570;6.036;2023-08-20T00:52:09;101946.91;;;20.43;96.61
49827;BME280;35715;51.570;6.036;2023-08-20T00:54:35;101950.16;;;20.37;96.25
49827;BME280;35715;51.570;6.036;2023-08-20T00:57:02;101944.63;;;20.31;96.58
49827;BME280;35715;51.570;6.036;2023-08-20T00:59:30;101946.09;;;20.25;96.23
49827;BME280;35715;51.570;6.036;2023-08-20T01:01:57;101956.31;;;20.18;96.70
49827;BME280;35715;51.570;6.036;2023-08-20T01:04:22;101952.63;;;20.15;97.07
49827;BME280;35715;51.570;6.036;2023-08-20T01:12:28;101958.09;;;20.01;97.63
49827;BME280;35715;51.570;6.036;2023-08-20T01:14:54;101957.16;;;19.99;97.42
49827;BME280;35715;51.570;6.036;2023-08-20T01:17:19;101957.81;;;19.95;97.13
49827;BME280;35715;51.570;6.036;2023-08-20T01:19:45;101955.91;;;19.91;97.45
49827;BME280;35715;51.570;6.036;2023-08-20T01:27:28;101986.06;;;19.83;97.81
49827;BME280;35715;51.570;6.036;2023-08-20T01:29:56;101984.28;;;19.82;97.64
49827;BME280;35715;51.570;6.036;2023-08-20T01:32:22;101986.97;;;19.83;97.71
49827;BME280;35715;51.570;6.036;2023-08-20T01:34:48;101982.63;;;19.84;98.32
49827;BME280;35715;51.570;6.036;2023-08-20T01:37:13;101990.69;;;19.89;98.52
49827;BME280;35715;51.570;6.036;2023-08-20T01:39:39;101996.16;;;19.93;98.43
49827;BME280;35715;51.570;6.036;2023-08-20T01:42:05;102002.34;;;19.95;98.09
49827;BME280;35715;51.570;6.036;2023-08-20T01:44:31;102008.72;;;20.00;97.67
49827;BME280;35715;51.570;6.036;2023-08-20T01:46:56;102006.25;;;20.03;97.49
49827;BME280;35715;51.570;6.036;2023-08-20T01:49:21;102011.66;;;20.07;97.41
49827;BME280;35715;51.570;6.036;2023-08-20T01:51:47;102016.97;;;20.08;97.48
49827;BME280;35715;51.570;6.036;2023-08-20T01:54:12;102019.66;;;20.10;97.65
49827;BME280;35715;51.570;6.036;2023-08-20T01:56:37;102014.34;;;20.08;97.82
49827;BME280;35715;51.570;6.036;2023-08-20T01:59:03;102009.03;;;20.07;97.83
49827;BME280;35715;51.570;6.036;2023-08-20T02:01:28;102008.22;;;20.08;98.15
49827;BME280;35715;51.570;6.036;2023-08-20T02:03:54;102011.72;;;20.08;98.54
49827;BME280;35715;51.570;6.036;2023-08-20T02:06:19;102013.53;;;20.09;98.46
49827;BME280;35715;51.570;6.036;2023-08-20T02:08:44;102005.88;;;20.14;98.81
49827;BME280;35715;51.570;6.036;2023-08-20T02:11:10;102011.25;;;20.17;98.78
49827;BME280;35715;51.570;6.036;2023-08-20T02:13:35;102006.97;;;20.19;98.83
49827;BME280;35715;51.570;6.036;2023-08-20T02:16:04;101999.78;;;20.15;98.69
49827;BME280;35715;51.570;6.036;2023-08-20T02:18:30;102012.00;;;20.14;99.09
49827;BME280;35715;51.570;6.036;2023-08-20T02:20:55;102008.50;;;20.14;99.22
49827;BME280;35715;51.570;6.036;2023-08-20T02:23:21;102021.66;;;20.15;99.57
49827;BME280;35715;51.570;6.036;2023-08-20T02:25:47;102021.75;;;20.17;99.83
49827;BME280;35715;51.570;6.036;2023-08-20T02:28:12;102024.44;;;20.18;99.78
49827;BME280;35715;51.570;6.036;2023-08-20T02:30:42;102025.53;;;20.24;100.00
49827;BME280;35715;51.570;6.036;2023-08-20T02:33:08;102027.41;;;20.26;100.00
49827;BME280;35715;51.570;6.036;2023-08-20T02:35:34;102031.97;;;20.30;100.00
49827;BME280;35715;51.570;6.036;2023-08-20T02:37:59;102031.28;;;20.34;100.00
49827;BME280;35715;51.570;6.036;2023-08-20T02:40:26;102027.97;;;20.38;100.00
49827;BME280;35715;51.570;6.036;2023-08-20T02:42:51;102027.16;;;20.39;99.50
49827;BME280;35715;51.570;6.036;2023-08-20T02:45:17;102013.00;;;20.36;99.34
49827;BME280;35715;51.570;6.036;2023-08-20T02:47:42;102021.63;;;20.33;99.57
49827;BME280;35715;51.570;6.036;2023-08-20T02:50:08;102019.69;;;20.29;99.58
49827;BME280;35715;51.570;6.036;2023-08-20T02:52:33;102020.22;;;20.22;99.76
49827;BME280;35715;51.570;6.036;2023-08-20T02:54:58;102019.13;;;20.17;100.00
49827;BME280;35715;51.570;6.036;2023-08-20T02:57:24;102015.44;;;20.13;100.00
49827;BME280;35715;51.570;6.036;2023-08-20T02:59:50;102016.28;;;20.12;100.00
49827;BME280;35715;51.570;6.036;2023-08-20T03:02:15;102011.94;;;20.13;100.00
49827;BME280;35715;51.570;6.036;2023-08-20T03:04:41;102019.94;;;20.16;100.00
49827;BME280;35715;51.570;6.036;2023-08-20T03:07:06;102019.19;;;20.18;100.00
49827;BME280;35715;51.570;6.036;2023-08-20T03:09:32;102014.84;;;20.19;100.00
49827;BME280;35715;51.570;6.036;2023-08-20T03:11:57;102006.84;;;20.16;100.00
49827;BME280;35715;51.570;6.036;2023-08-20T03:14:23;102007.44;;;20.10;100.00
49827;BME280;35715;51.570;6.036;2023-08-20T03:16:48;101993.97;;;20.02;100.00
49827;BME280;35715;51.570;6.036;2023-08-20T03:19:15;101993.69;;;19.96;100.00
49827;BME280;35715;51.570;6.036;2023-08-20T03:21:41;101997.81;;;19.91;100.00
49827;BME280;35715;51.570;6.036;2023-08-20T03:24:07;102002.69;;;19.83;100.00
49827;BME280;35715;51.570;6.036;2023-08-20T03:26:33;101996.59;;;19.84;100.00
49827;BME280;35715;51.570;6.036;2023-08-20T03:28:58;101994.75;;;19.82;100.00
49827;BME280;35715;51.570;6.036;2023-08-20T03:31:24;101995.50;;;19.79;100.00
49827;BME280;35715;51.570;6.036;2023-08-20T03:33:49;101996.22;;;19.77;100.00
49827;BME280;35715;51.570;6.036;2023-08-20T03:36:18;102000.41;;;19.73;100.00
49827;BME280;35715;51.570;6.036;2023-08-20T03:38:43;101996.72;;;19.69;100.00
49827;BME280;35715;51.570;6.036;2023-08-20T03:41:09;102000.13;;;19.67;100.00
49827;BME280;35715;51.570;6.036;2023-08-20T03:43:34;101994.66;;;19.62;100.00
49827;BME280;35715;51.570;6.036;2023-08-20T03:46:01;101988.28;;;19.57;100.00
49827;BME280;35715;51.570;6.036;2023-08-20T03:48:26;101987.97;;;19.51;100.00
49827;BME280;35715;51.570;6.036;2023-08-20T03:50:51;101986.28;;;19.52;100.00
49827;BME280;35715;51.570;6.036;2023-08-20T03:53:17;101989.84;;;19.54;100.00
49827;BME280;35715;51.570;6.036;2023-08-20T03:55:47;101995.16;;;19.55;100.00
49827;BME280;35715;51.570;6.036;2023-08-20T03:58:13;101990.06;;;19.58;100.00
49827;BME280;35715;51.570;6.036;2023-08-20T04:00:38;101994.56;;;19.61;100.00
49827;BME280;35715;51.570;6.036;2023-08-20T04:03:04;101999.66;;;19.58;100.00
49827;BME280;35715;51.570;6.036;2023-08-20T04:05:29;102001.13;;;19.53;100.00
49827;BME280;35715;51.570;6.036;2023-08-20T04:07:54;102005.34;;;19.49;100.00
49827;BME280;35715;51.570;6.036;2023-08-20T04:10:20;102005.09;;;19.44;100.00
49827;BME280;35715;51.570;6.036;2023-08-20T04:12:45;102014.50;;;19.41;100.00
49827;BME280;35715;51.570;6.036;2023-08-20T04:15:11;102010.84;;;19.37;100.00
49827;BME280;35715;51.570;6.036;2023-08-20T04:17:36;102014.19;;;19.35;100.00
49827;BME280;35715;51.570;6.036;2023-08-20T04:20:02;102007.03;;;19.30;100.00
49827;BME280;35715;51.570;6.036;2023-08-20T04:22:29;102008.56;;;19.27;100.00
49827;BME280;35715;51.570;6.036;2023-08-20T04:24:56;102006.81;;;19.26;100.00
49827;BME280;35715;51.570;6.036;2023-08-20T04:27:21;102008.50;;;19.25;100.00
49827;BME280;35715;51.570;6.036;2023-08-20T04:29:47;102010.22;;;19.25;100.00
49827;BME280;35715;51.570;6.036;2023-08-20T04:32:12;102010.88;;;19.21;100.00
49827;BME280;35715;51.570;6.036;2023-08-20T04:34:37;102010.81;;;19.19;100.00
49827;BME280;35715;51.570;6.036;2023-08-20T04:37:03;102012.47;;;19.17;100.00
49827;BME280;35715;51.570;6.036;2023-08-20T04:39:28;102014.06;;;19.15;100.00
49827;BME280;35715;51.570;6.036;2023-08-20T04:41:54;102010.72;;;19.18;100.00
49827;BME280;35715;51.570;6.036;2023-08-20T04:44:22;102013.34;;;19.18;100.00
49827;BME280;35715;51.570;6.036;2023-08-20T04:46:48;102014.22;;;19.18;100.00
49827;BME280;35715;51.570;6.036;2023-08-20T04:49:13;102013.41;;;19.19;100.00
49827;BME280;35715;51.570;6.036;2023-08-20T04:51:38;102016.84;;;19.18;100.00
49827;BME280;35715;51.570;6.036;2023-08-20T04:54:04;102015.97;;;19.18;100.00
49827;BME280;35715;51.570;6.036;2023-08-20T04:56:29;102015.88;;;19.16;100.00
49827;BME280;35715;51.570;6.036;2023-08-20T04:58:55;102021.13;;;19.16;100.00
49827;BME280;35715;51.570;6.036;2023-08-20T05:01:20;102020.22;;;19.15;100.00
49827;BME280;35715;51.570;6.036;2023-08-20T05:03:45;102028.16;;;19.17;100.00
49827;BME280;35715;51.570;6.036;2023-08-20T05:06:11;102016.84;;;19.18;100.00
49827;BME280;35715;51.570;6.036;2023-08-20T05:08:36;102016.03;;;19.19;100.00
49827;BME280;35715;51.570;6.036;2023-08-20T05:11:01;102029.13;;;19.19;100.00
49827;BME280;35715;51.570;6.036;2023-08-20T05:13:27;102032.63;;;19.20;100.00
49827;BME280;35715;51.570;6.036;2023-08-20T05:15:52;102030.00;;;19.20;100.00
49827;BME280;35715;51.570;6.036;2023-08-20T05:18:17;102037.94;;;19.21;100.00
49827;BME280;35715;51.570;6.036;2023-08-20T05:20:43;102040.56;;;19.21;100.00
49827;BME280;35715;51.570;6.036;2023-08-20T05:23:08;102041.47;;;19.22;100.00
49827;BME280;35715;51.570;6.036;2023-08-20T05:25:34;102045.97;;;19.24;100.00
49827;BME280;35715;51.570;6.036;2023-08-20T05:27:59;102042.59;;;19.27;100.00
49827;BME280;35715;51.570;6.036;2023-08-20T05:30:26;102046.22;;;19.29;100.00
49827;BME280;35715;51.570;6.036;2023-08-20T05:32:51;102045.44;;;19.31;100.00
49827;BME280;35715;51.570;6.036;2023-08-20T05:35:17;102049.94;;;19.34;100.00
49827;BME280;35715;51.570;6.036;2023-08-20T05:37:42;102048.28;;;19.36;100.00
49827;BME280;35715;51.570;6.036;2023-08-20T05:40:08;102058.03;;;19.39;100.00
49827;BME280;35715;51.570;6.036;2023-08-20T05:42:34;102055.56;;;19.42;100.00
49827;BME280;35715;51.570;6.036;2023-08-20T05:44:59;102062.69;;;19.44;100.00
49827;BME280;35715;51.570;6.036;2023-08-20T05:47:25;102057.69;;;19.49;100.00
49827;BME280;35715;51.570;6.036;2023-08-20T05:49:50;102060.53;;;19.54;100.00
49827;BME280;35715;51.570;6.036;2023-08-20T05:52:15;102058.88;;;19.56;100.00
49827;BME280;35715;51.570;6.036;2023-08-20T05:54:41;102069.66;;;19.62;100.00
49827;BME280;35715;51.570;6.036;2023-08-20T05:57:06;102062.03;;;19.66;100.00
49827;BME280;35715;51.570;6.036;2023-08-20T05:59:31;102053.44;;;19.69;100.00
49827;BME280;35715;51.570;6.036;2023-08-20T06:01:57;102055.41;;;19.73;100.00
49827;BME280;35715;51.570;6.036;2023-08-20T06:04:22;102053.03;;;19.78;100.00
49827;BME280;35715;51.570;6.036;2023-08-20T06:06:48;102064.63;;;19.83;100.00
49827;BME280;35715;51.570;6.036;2023-08-20T06:09:13;102056.19;;;19.89;100.00
49827;BME280;35715;51.570;6.036;2023-08-20T06:11:38;102055.59;;;19.94;100.00
49827;BME280;35715;51.570;6.036;2023-08-20T06:14:04;102053.28;;;20.00;100.00
49827;BME280;35715;51.570;6.036;2023-08-20T06:16:29;102054.31;;;20.04;100.00
49827;BME280;35715;51.570;6.036;2023-08-20T06:18:54;102052.91;;;20.11;100.00
49827;BME280;35715;51.570;6.036;2023-08-20T06:21:20;102047.94;;;20.17;100.00
49827;BME280;35715;51.570;6.036;2023-08-20T06:23:45;102051.66;;;20.22;100.00
49827;BME280;35715;51.570;6.036;2023-08-20T06:26:11;102055.56;;;20.30;100.00
49827;BME280;35715;51.570;6.036;2023-08-20T06:28:36;102060.25;;;20.37;100.00
49827;BME280;35715;51.570;6.036;2023-08-20T06:31:02;102056.22;;;20.44;100.00
49827;BME280;35715;51.570;6.036;2023-08-20T06:33:27;102053.09;;;20.53;100.00
49827;BME280;35715;51.570;6.036;2023-08-20T06:35:53;102063.19;;;20.63;100.00
49827;BME280;35715;51.570;6.036;2023-08-20T06:38:18;102070.63;;;20.72;100.00
49827;BME280;35715;51.570;6.036;2023-08-20T06:40:43;102073.72;;;20.83;100.00
49827;BME280;35715;51.570;6.036;2023-08-20T06:43:09;102065.03;;;21.03;100.00
49827;BME280;35715;51.570;6.036;2023-08-20T06:45:34;102064.75;;;21.57;99.91
49827;BME280;35715;51.570;6.036;2023-08-20T06:47:59;102069.22;;;22.02;99.18
49827;BME280;35715;51.570;6.036;2023-08-20T06:50:25;102077.41;;;22.54;96.77
49827;BME280;35715;51.570;6.036;2023-08-20T06:52:50;102083.00;;;23.10;93.48
49827;BME280;35715;51.570;6.036;2023-08-20T06:55:15;102078.66;;;23.62;90.82
49827;BME280;35715;51.570;6.036;2023-08-20T06:57:41;102080.22;;;24.08;88.18
49827;BME280;35715;51.570;6.036;2023-08-20T07:00:06;102088.31;;;24.43;87.05
49827;BME280;35715;51.570;6.036;2023-08-20T07:02:32;102087.50;;;24.73;84.87
49827;BME280;35715;51.570;6.036;2023-08-20T07:04:57;102090.28;;;25.09;81.63
49827;BME280;35715;51.570;6.036;2023-08-20T07:07:23;102090.59;;;25.54;79.92
49827;BME280;35715;51.570;6.036;2023-08-20T07:09:48;102097.78;;;25.94;76.86
49827;BME280;35715;51.570;6.036;2023-08-20T07:12:13;102092.53;;;26.32;75.09
49827;BME280;35715;51.570;6.036;2023-08-20T07:14:39;102099.53;;;26.68;72.52
49827;BME280;35715;51.570;6.036;2023-08-20T07:17:04;102094.09;;;27.06;71.15
49827;BME280;35715;51.570;6.036;2023-08-20T07:19:30;102083.25;;;27.38;68.38
49827;BME280;35715;51.570;6.036;2023-08-20T07:21:56;102092.75;;;27.77;67.36
49827;BME280;35715;51.570;6.036;2023-08-20T07:24:21;102090.22;;;28.43;64.22
49827;BME280;35715;51.570;6.036;2023-08-20T07:26:54;102090.38;;;29.26;60.72
49827;BME280;35715;51.570;6.036;2023-08-20T07:29:25;102087.34;;;29.81;58.42
49827;BME280;35715;51.570;6.036;2023-08-20T07:31:50;102089.44;;;30.27;55.89
49827;BME280;35715;51.570;6.036;2023-08-20T07:34:16;102084.25;;;30.55;52.78
49827;BME280;35715;51.570;6.036;2023-08-20T07:36:41;102087.91;;;30.80;51.07
49827;BME280;35715;51.570;6.036;2023-08-20T07:39:06;102086.28;;;31.18;49.32
49827;BME280;35715;51.570;6.036;2023-08-20T07:41:33;102089.00;;;31.61;48.08
49827;BME280;35715;51.570;6.036;2023-08-20T07:43:58;102091.66;;;31.99;46.69
49827;BME280;35715;51.570;6.036;2023-08-20T07:46:24;102096.03;;;32.34;46.72
49827;BME280;35715;51.570;6.036;2023-08-20T07:48:49;102087.84;;;32.79;45.57
49827;BME280;35715;51.570;6.036;2023-08-20T07:51:15;102090.28;;;33.27;43.46
49827;BME280;35715;51.570;6.036;2023-08-20T07:53:40;102089.97;;;33.63;43.31
49827;BME280;35715;51.570;6.036;2023-08-20T07:56:06;102096.03;;;33.88;41.49
49827;BME280;35715;51.570;6.036;2023-08-20T07:58:31;102095.91;;;33.99;40.78
49827;BME280;35715;51.570;6.036;2023-08-20T08:00:57;102094.84;;;34.15;40.77
49827;BME280;35715;51.570;6.036;2023-08-20T08:03:25;102091.16;;;34.28;40.22
49827;BME280;35715;51.570;6.036;2023-08-20T08:05:51;102086.38;;;34.57;38.53
49827;BME280;35715;51.570;6.036;2023-08-20T08:08:17;102095.91;;;34.81;38.76
49827;BME280;35715;51.570;6.036;2023-08-20T08:10:43;102098.13;;;35.12;37.16
49827;BME280;35715;51.570;6.036;2023-08-20T08:13:19;102093.44;;;35.25;36.26
49827;BME280;35715;51.570;6.036;2023-08-20T08:15:45;102102.91;;;35.50;36.34
49827;BME280;35715;51.570;6.036;2023-08-20T08:18:12;102101.56;;;35.78;35.67
49827;BME280;35715;51.570;6.036;2023-08-20T08:20:37;102100.25;;;36.00;35.34
49827;BME280;35715;51.570;6.036;2023-08-20T08:23:03;102094.28;;;36.34;34.75
49827;BME280;35715;51.570;6.036;2023-08-20T08:25:29;102107.38;;;36.50;34.09
49827;BME280;35715;51.570;6.036;2023-08-20T08:27:54;102104.38;;;36.65;33.85
49827;BME280;35715;51.570;6.036;2023-08-20T08:30:20;102106.84;;;37.15;33.20
49827;BME280;35715;51.570;6.036;2023-08-20T08:32:45;102102.19;;;37.59;32.25
49827;BME280;35715;51.570;6.036;2023-08-20T08:35:10;102116.50;;;37.97;31.45
49827;BME280;35715;51.570;6.036;2023-08-20T08:37:36;102112.97;;;38.28;31.35
49827;BME280;35715;51.570;6.036;2023-08-20T08:40:02;102116.28;;;38.38;31.26
49827;BME280;35715;51.570;6.036;2023-08-20T08:42:30;102121.97;;;38.59;30.65
49827;BME280;35715;51.570;6.036;2023-08-20T08:45:01;102125.75;;;38.83;30.16
49827;BME280;35715;51.570;6.036;2023-08-20T08:47:27;102127.34;;;38.90;30.96
49827;BME280;35715;51.570;6.036;2023-08-20T08:49:55;102133.09;;;39.08;29.89
49827;BME280;35715;51.570;6.036;2023-08-20T08:52:22;102130.91;;;39.47;29.10
49827;BME280;35715;51.570;6.036;2023-08-20T08:54:48;102129.16;;;39.73;29.06
49827;BME280;35715;51.570;6.036;2023-08-20T08:57:14;102124.16;;;40.14;28.83
49827;BME280;35715;51.570;6.036;2023-08-20T08:59:40;102123.09;;;40.67;27.77
49827;BME280;35715;51.570;6.036;2023-08-20T09:02:08;102123.38;;;40.59;27.50
49827;BME280;35715;51.570;6.036;2023-08-20T09:04:40;102127.16;;;40.77;26.93
49827;BME280;35715;51.570;6.036;2023-08-20T09:07:11;102127.69;;;40.89;26.32
49827;BME280;35715;51.570;6.036;2023-08-20T09:09:36;102133.13;;;41.33;26.95
49827;BME280;35715;51.570;6.036;2023-08-20T09:12:13;102134.09;;;41.75;25.68
49827;BME280;35715;51.570;6.036;2023-08-20T09:14:39;102135.78;;;41.77;25.55
49827;BME280;35715;51.570;6.036;2023-08-20T09:17:04;102126.50;;;42.03;25.49
49827;BME280;35715;51.570;6.036;2023-08-20T09:19:35;102130.88;;;42.27;24.57
49827;BME280;35715;51.570;6.036;2023-08-20T09:22:02;102130.00;;;42.66;24.27
49827;BME280;35715;51.570;6.036;2023-08-20T09:24:39;102130.66;;;42.90;24.25
49827;BME280;35715;51.570;6.036;2023-08-20T09:27:07;102132.66;;;43.42;24.15
49827;BME280;35715;51.570;6.036;2023-08-20T09:29:33;102132.63;;;43.77;22.78
49827;BME280;35715;51.570;6.036;2023-08-20T09:32:02;102125.78;;;43.87;24.44
49827;BME280;35715;51.570;6.036;2023-08-20T09:34:37;102128.16;;;44.11;24.99
49827;BME280;35715;51.570;6.036;2023-08-20T09:37:04;102126.91;;;44.34;23.27
49827;BME280;35715;51.570;6.036;2023-08-20T09:39:29;102132.78;;;44.09;23.59
49827;BME280;35715;51.570;6.036;2023-08-20T09:41:55;102125.59;;;44.25;22.84
49827;BME280;35715;51.570;6.036;2023-08-20T09:44:21;102125.88;;;44.19;23.42
49827;BME280;35715;51.570;6.036;2023-08-20T09:46:47;102132.25;;;43.85;23.58
49827;BME280;35715;51.570;6.036;2023-08-20T09:49:15;102132.00;;;43.54;23.81
49827;BME280;35715;51.570;6.036;2023-08-20T09:51:44;102132.13;;;43.34;23.22
49827;BME280;35715;51.570;6.036;2023-08-20T09:54:20;102140.78;;;43.42;23.26
49827;BME280;35715;51.570;6.036;2023-08-20T09:56:54;102140.25;;;43.16;23.67
49827;BME280;35715;51.570;6.036;2023-08-20T09:59:19;102130.56;;;42.92;23.65
49827;BME280;35715;51.570;6.036;2023-08-20T10:01:46;102129.84;;;42.69;23.16
49827;BME280;35715;51.570;6.036;2023-08-20T10:04:13;102137.13;;;42.68;23.46
49827;BME280;35715;51.570;6.036;2023-08-20T10:06:40;102131.25;;;42.19;23.17
49827;BME280;35715;51.570;6.036;2023-08-20T10:09:07;102129.53;;;42.16;23.64
49827;BME280;35715;51.570;6.036;2023-08-20T10:11:32;102134.44;;;42.48;23.41
49827;BME280;35715;51.570;6.036;2023-08-20T10:13:57;102132.91;;;42.80;24.58
49827;BME280;35715;51.570;6.036;2023-08-20T10:16:23;102135.59;;;43.01;22.83
49827;BME280;35715;51.570;6.036;2023-08-20T10:18:49;102128.31;;;42.82;22.72
49827;BME280;35715;51.570;6.036;2023-08-20T10:21:15;102137.63;;;42.96;22.62
49827;BME280;35715;51.570;6.036;2023-08-20T10:23:40;102130.28;;;42.98;22.15
49827;BME280;35715;51.570;6.036;2023-08-20T10:26:10;102141.28;;;42.95;23.23
49827;BME280;35715;51.570;6.036;2023-08-20T10:28:36;102134.00;;;42.57;23.37
49827;BME280;35715;51.570;6.036;2023-08-20T10:31:10;102137.66;;;42.56;22.80
49827;BME280;35715;51.570;6.036;2023-08-20T10:33:50;102131.94;;;42.43;21.62
49827;BME280;35715;51.570;6.036;2023-08-20T10:36:20;102131.66;;;42.49;22.50
49827;BME280;35715;51.570;6.036;2023-08-20T10:38:55;102135.72;;;42.20;22.10
49827;BME280;35715;51.570;6.036;2023-08-20T10:41:28;102130.22;;;42.22;21.76
49827;BME280;35715;51.570;6.036;2023-08-20T10:43:58;102132.09;;;42.40;22.73
49827;BME280;35715;51.570;6.036;2023-08-20T10:46:24;102134.44;;;42.48;22.85
49827;BME280;35715;51.570;6.036;2023-08-20T10:48:58;102132.50;;;41.69;21.92
49827;BME280;35715;51.570;6.036;2023-08-20T10:56:57;102122.78;;;38.61;25.84
49827;BME280;35715;51.570;6.036;2023-08-20T10:59:27;102123.97;;;38.21;26.16
49827;BME280;35715;51.570;6.036;2023-08-20T11:01:57;102129.41;;;37.49;27.06
49827;BME280;35715;51.570;6.036;2023-08-20T11:04:25;102137.44;;;37.11;28.09
49827;BME280;35715;51.570;6.036;2023-08-20T11:06:54;102137.34;;;36.76;28.36
49827;BME280;35715;51.570;6.036;2023-08-20T11:09:21;102135.06;;;36.55;28.47
49827;BME280;35715;51.570;6.036;2023-08-20T11:11:47;102127.34;;;36.38;29.19
49827;BME280;35715;51.570;6.036;2023-08-20T11:14:14;102125.53;;;35.92;29.30
49827;BME280;35715;51.570;6.036;2023-08-20T11:16:43;102121.47;;;35.66;29.44
49827;BME280;35715;51.570;6.036;2023-08-20T11:19:09;102130.63;;;35.52;30.23
49827;BME280;35715;51.570;6.036;2023-08-20T11:21:35;102125.31;;;35.49;28.95
49827;BME280;35715;51.570;6.036;2023-08-20T11:24:02;102123.53;;;35.48;30.16
49827;BME280;35715;51.570;6.036;2023-08-20T11:26:29;102127.41;;;35.29;29.17
49827;BME280;35715;51.570;6.036;2023-08-20T11:28:54;102122.94;;;35.31;28.55
49827;BME280;35715;51.570;6.036;2023-08-20T11:31:20;102119.34;;;36.79;28.49
49827;BME280;35715;51.570;6.036;2023-08-20T11:33:45;102123.03;;;38.23;26.87
49827;BME280;35715;51.570;6.036;2023-08-20T11:36:14;102113.66;;;39.25;25.03
49827;BME280;35715;51.570;6.036;2023-08-20T11:38:40;102113.94;;;39.96;24.36
49827;BME280;35715;51.570;6.036;2023-08-20T11:41:05;102116.94;;;40.62;23.66
49827;BME280;35715;51.570;6.036;2023-08-20T11:43:32;102120.94;;;40.99;22.53
49827;BME280;35715;51.570;6.036;2023-08-20T11:45:57;102116.16;;;41.28;23.11
49827;BME280;35715;51.570;6.036;2023-08-20T11:48:23;102114.72;;;41.62;23.03
49827;BME280;35715;51.570;6.036;2023-08-20T11:50:50;102107.06;;;41.73;22.83
49827;BME280;35715;51.570;6.036;2023-08-20T11:53:20;102106.41;;;42.08;22.94
49827;BME280;35715;51.570;6.036;2023-08-20T11:55:49;102111.59;;;42.12;21.75
49827;BME280;35715;51.570;6.036;2023-08-20T11:58:14;102115.97;;;42.16;21.67
49827;BME280;35715;51.570;6.036;2023-08-20T12:00:40;102106.63;;;42.24;21.13
49827;BME280;35715;51.570;6.036;2023-08-20T12:03:08;102107.66;;;42.40;20.80
49827;BME280;35715;51.570;6.036;2023-08-20T12:05:33;102111.09;;;42.25;21.36
49827;BME280;35715;51.570;6.036;2023-08-20T12:08:01;102110.28;;;42.23;21.31
49827;BME280;35715;51.570;6.036;2023-08-20T12:10:28;102101.19;;;42.03;21.53
49827;BME280;35715;51.570;6.036;2023-08-20T12:12:54;102097.69;;;42.01;21.30
49827;BME280;35715;51.570;6.036;2023-08-20T12:15:21;102093.38;;;41.76;20.99
49827;BME280;35715;51.570;6.036;2023-08-20T12:18:04;102086.31;;;41.50;20.86
49827;BME280;35715;51.570;6.036;2023-08-20T12:20:31;102091.34;;;41.39;21.50
49827;BME280;35715;51.570;6.036;2023-08-20T12:23:05;102080.25;;;41.45;21.55
49827;BME280;35715;51.570;6.036;2023-08-20T12:25:37;102078.47;;;41.44;22.22
49827;BME280;35715;51.570;6.036;2023-08-20T12:28:03;102073.06;;;41.22;21.03
49827;BME280;35715;51.570;6.036;2023-08-20T12:30:33;102071.78;;;40.86;21.45
49827;BME280;35715;51.570;6.036;2023-08-20T12:33:01;102068.53;;;40.78;21.80
49827;BME280;35715;51.570;6.036;2023-08-20T12:35:27;102060.69;;;40.48;21.78
49827;BME280;35715;51.570;6.036;2023-08-20T12:37:53;102063.56;;;40.43;21.97
49827;BME280;35715;51.570;6.036;2023-08-20T12:40:18;102058.72;;;40.28;22.39
49827;BME280;35715;51.570;6.036;2023-08-20T12:42:43;102056.56;;;40.14;22.28
49827;BME280;35715;51.570;6.036;2023-08-20T12:45:09;102060.78;;;39.96;22.78
49827;BME280;35715;51.570;6.036;2023-08-20T12:47:35;102056.16;;;39.74;22.08
49827;BME280;35715;51.570;6.036;2023-08-20T12:50:01;102062.34;;;39.51;23.08
49827;BME280;35715;51.570;6.036;2023-08-20T12:52:28;102053.00;;;39.35;23.46
49827;BME280;35715;51.570;6.036;2023-08-20T12:54:53;102046.41;;;39.17;23.87
49827;BME280;35715;51.570;6.036;2023-08-20T12:57:19;102054.91;;;39.04;25.02
49827;BME280;35715;51.570;6.036;2023-08-20T12:59:44;102055.25;;;38.94;24.19